createdAt,value
2023-04-30T00:01:45.555Z,97000.31
2023-04-30T00:04:12.234Z,97003.03
2023-04-30T00:06:41.595Z,97003.03
2023-04-30T00:09:08.268Z,96994.44
2023-04-30T00:11:34.798Z,96996.78
2023-04-30T00:14:01.373Z,96992.53
2023-04-30T00:16:28.045Z,96994.00
2023-04-30T00:18:54.718Z,96998.50
2023-04-30T00:21:26.272Z,96987.03
2023-04-30T00:23:55.152Z,96988.06
2023-04-30T00:26:21.680Z,96988.34
2023-04-30T00:28:48.274Z,96985.50
2023-04-30T00:31:17.073Z,96986.44
2023-04-30T00:33:46.203Z,96995.59
2023-04-30T00:36:12.827Z,96991.72
2023-04-30T00:38:41.504Z,96987.47
2023-04-30T00:41:08.092Z,96991.78
2023-04-30T00:43:39.309Z,96991.69
2023-04-30T00:46:07.989Z,96999.16
2023-04-30T00:48:34.617Z,96987.63
2023-04-30T00:51:04.086Z,96984.69
2023-04-30T00:53:31.403Z,96984.41
2023-04-30T00:55:58.925Z,96976.59
2023-04-30T00:58:28.134Z,96974.63
2023-04-30T01:00:56.993Z,96970.03
2023-04-30T01:03:24.170Z,96972.97
2023-04-30T01:05:50.852Z,96970.50
2023-04-30T01:08:17.636Z,96971.28
2023-04-30T01:11:00.136Z,96972.91
2023-04-30T01:13:35.787Z,96964.75
2023-04-30T01:16:35.933Z,96961.19
2023-04-30T01:19:11.872Z,96960.66
2023-04-30T01:21:45.689Z,96953.28
2023-04-30T01:24:48.240Z,96956.72
2023-04-30T01:27:30.450Z,96955.03
2023-04-30T01:30:00.185Z,96955.78
2023-04-30T01:32:26.913Z,96965.22
2023-04-30T01:34:53.483Z,96960.88
2023-04-30T01:37:19.958Z,96953.84
2023-04-30T01:39:49.013Z,96963.41
2023-04-30T01:42:42.084Z,96959.44
2023-04-30T01:45:43.409Z,96954.06
2023-04-30T01:48:28.524Z,96955.94
2023-04-30T01:51:09.837Z,96962.06
2023-04-30T01:53:43.956Z,96957.78
2023-04-30T01:56:18.454Z,96956.31
2023-04-30T01:58:47.149Z,96955.47
2023-04-30T02:01:36.383Z,96954.38
2023-04-30T02:04:06.273Z,96954.69
2023-04-30T02:06:33.459Z,96956.09
2023-04-30T02:09:05.352Z,96944.00
2023-04-30T02:11:32.118Z,96954.66
2023-04-30T02:13:58.697Z,96946.09
2023-04-30T02:16:25.427Z,96952.41
2023-04-30T02:18:54.464Z,96957.91
2023-04-30T02:21:21.318Z,96958.28
2023-04-30T02:23:48.074Z,96956.13
2023-04-30T02:26:21.950Z,96958.94
2023-04-30T02:28:48.525Z,96955.66
2023-04-30T02:31:19.779Z,96956.25
2023-04-30T02:33:48.653Z,96958.19
2023-04-30T02:36:15.182Z,96950.91
2023-04-30T02:38:41.790Z,96957.84
2023-04-30T02:41:08.328Z,96948.78
2023-04-30T02:43:34.914Z,96944.03
2023-04-30T02:46:01.509Z,96952.84
2023-04-30T02:48:32.832Z,96953.53
2023-04-30T02:50:59.378Z,96953.81
2023-04-30T02:53:28.403Z,96951.78
2023-04-30T02:55:54.975Z,96957.63
2023-04-30T02:58:21.534Z,96954.50
2023-04-30T03:00:50.636Z,96955.19
2023-04-30T03:03:17.366Z,96948.47
2023-04-30T03:05:43.949Z,96962.22
2023-04-30T03:08:10.590Z,96952.97
2023-04-30T03:10:37.146Z,96953.31
2023-04-30T03:13:08.241Z,96950.94
2023-04-30T03:15:34.824Z,96949.06
2023-04-30T03:18:01.433Z,96947.41
2023-04-30T03:20:27.968Z,96960.28
2023-04-30T03:22:54.804Z,96950.47
2023-04-30T03:25:21.308Z,96952.72
2023-04-30T03:27:50.111Z,96947.31
2023-04-30T03:30:18.917Z,96961.22
2023-04-30T03:32:50.578Z,96950.78
2023-04-30T03:35:17.459Z,96946.53
2023-04-30T03:37:43.993Z,96943.06
2023-04-30T03:40:13.376Z,96944.16
2023-04-30T03:42:40.086Z,96953.50
2023-04-30T03:45:09.626Z,96946.06
2023-04-30T03:47:41.218Z,96938.84
2023-04-30T03:50:11.692Z,96939.94
2023-04-30T03:52:38.473Z,96942.63
2023-04-30T03:55:07.720Z,96943.50
2023-04-30T03:57:38.994Z,96948.56
2023-04-30T04:00:07.823Z,96953.50
2023-04-30T04:02:37.027Z,96950.38
2023-04-30T04:05:04.368Z,96949.25
2023-04-30T04:07:30.909Z,96953.19
2023-04-30T04:09:57.465Z,96946.47
2023-04-30T04:12:24.090Z,96951.97
2023-04-30T04:14:53.629Z,96954.97
2023-04-30T04:17:22.537Z,96956.22
2023-04-30T04:19:49.193Z,96969.88
2023-04-30T04:22:15.734Z,96958.16
2023-04-30T04:24:44.675Z,96964.09
2023-04-30T04:27:13.580Z,96962.91
2023-04-30T04:29:40.118Z,96960.97
2023-04-30T04:32:06.920Z,96954.19
2023-04-30T04:34:33.846Z,96956.63
2023-04-30T04:37:03.258Z,96947.09
2023-04-30T04:39:29.829Z,96944.75
2023-04-30T04:41:58.605Z,96954.69
2023-04-30T04:44:25.141Z,96945.34
2023-04-30T04:46:54.022Z,96948.56
2023-04-30T04:49:20.984Z,96945.78
2023-04-30T04:51:52.280Z,96956.91
2023-04-30T04:54:21.288Z,96946.06
2023-04-30T04:56:52.682Z,96954.44
2023-04-30T04:59:21.711Z,96945.63
2023-04-30T05:01:48.435Z,96948.88
2023-04-30T05:04:17.489Z,96946.75
2023-04-30T05:06:48.836Z,96943.09
2023-04-30T05:09:17.544Z,96939.03
2023-04-30T05:11:49.232Z,96937.31
2023-04-30T05:14:17.970Z,96945.25
2023-04-30T05:16:47.097Z,96935.78
2023-04-30T05:19:16.041Z,96940.31
2023-04-30T05:21:44.706Z,96937.59
2023-04-30T05:24:16.208Z,96941.34
2023-04-30T05:26:45.104Z,96940.50
2023-04-30T05:29:12.396Z,96941.22
2023-04-30T05:31:41.980Z,96945.22
2023-04-30T05:34:10.961Z,96944.59
2023-04-30T05:36:40.169Z,96945.63
2023-04-30T05:39:07.118Z,96931.09
2023-04-30T05:41:33.706Z,96939.16
2023-04-30T05:44:00.505Z,96939.59
2023-04-30T05:46:30.143Z,96944.25
2023-04-30T05:48:58.935Z,96942.63
2023-04-30T05:51:31.286Z,96945.63
2023-04-30T05:54:00.458Z,96948.69
2023-04-30T05:56:30.045Z,96935.84
2023-04-30T05:58:58.817Z,96945.78
2023-04-30T06:01:25.513Z,96944.94
2023-04-30T06:03:54.517Z,96945.72
2023-04-30T06:06:23.668Z,96948.16
2023-04-30T06:08:52.384Z,96945.53
2023-04-30T06:11:21.486Z,96942.81
2023-04-30T06:13:48.777Z,96942.72
2023-04-30T06:16:15.389Z,96945.66
2023-04-30T06:18:41.945Z,96949.09
2023-04-30T06:21:08.486Z,96947.44
2023-04-30T06:23:35.705Z,96948.41
2023-04-30T06:26:04.735Z,96939.72
2023-04-30T06:28:35.891Z,96951.91
2023-04-30T06:31:05.011Z,96949.31
2023-04-30T06:33:31.584Z,96959.72
2023-04-30T06:36:00.341Z,96958.47
2023-04-30T06:38:26.912Z,96958.31
2023-04-30T06:40:55.637Z,96953.34
2023-04-30T06:43:24.466Z,96951.66
2023-04-30T06:45:53.366Z,96951.00
2023-04-30T06:48:20.365Z,96956.66
2023-04-30T06:50:46.969Z,96952.81
2023-04-30T06:53:16.591Z,96954.63
2023-04-30T06:55:48.473Z,96949.16
2023-04-30T06:58:15.223Z,96948.72
2023-04-30T07:00:46.621Z,96962.06
2023-04-30T07:03:15.666Z,96953.34
2023-04-30T07:05:42.551Z,96954.84
2023-04-30T07:08:09.098Z,96956.22
2023-04-30T07:10:35.780Z,96956.19
2023-04-30T07:13:08.319Z,96951.88
2023-04-30T07:15:35.078Z,96968.28
2023-04-30T07:18:01.686Z,96957.75
2023-04-30T07:20:28.252Z,96957.34
2023-04-30T07:22:56.997Z,96953.22
2023-04-30T07:25:23.700Z,96954.09
2023-04-30T07:27:55.797Z,96956.47
2023-04-30T07:30:25.399Z,96952.56
2023-04-30T07:32:52.141Z,96955.28
2023-04-30T07:35:19.097Z,96965.91
2023-04-30T07:37:45.824Z,96962.22
2023-04-30T07:40:15.355Z,96955.81
2023-04-30T07:42:46.272Z,96955.59
2023-04-30T07:45:13.395Z,96959.66
2023-04-30T07:47:40.093Z,96957.44
2023-04-30T07:50:07.341Z,96956.81
2023-04-30T07:52:34.565Z,96951.34
2023-04-30T07:55:01.131Z,96954.63
2023-04-30T07:57:30.147Z,96955.09
2023-04-30T07:59:59.215Z,96962.06
2023-04-30T08:02:28.563Z,96958.66
2023-04-30T08:05:00.180Z,96958.03
2023-04-30T08:07:29.206Z,96955.75
2023-04-30T08:09:56.014Z,96956.63
2023-04-30T08:12:22.801Z,96955.75
2023-04-30T08:15:02.253Z,96951.56
2023-04-30T08:17:28.908Z,96951.53
2023-04-30T08:19:55.658Z,96962.41
2023-04-30T08:22:23.495Z,96961.66
2023-04-30T08:24:50.395Z,96958.06
2023-04-30T08:27:16.978Z,96962.91
2023-04-30T08:29:43.591Z,96962.97
2023-04-30T08:32:10.271Z,96956.91
2023-04-30T08:34:44.855Z,96960.34
2023-04-30T08:37:13.836Z,96959.56
2023-04-30T08:39:40.542Z,96960.38
2023-04-30T08:42:09.972Z,96959.47
2023-04-30T08:44:44.054Z,96964.19
2023-04-30T08:47:14.300Z,96954.88
2023-04-30T08:49:41.452Z,96957.53
2023-04-30T08:52:10.582Z,96957.75
2023-04-30T08:54:37.765Z,96962.75
2023-04-30T08:57:07.955Z,96959.91
2023-04-30T08:59:36.927Z,96968.03
2023-04-30T09:02:06.297Z,96962.47
2023-04-30T09:04:35.381Z,96957.69
2023-04-30T09:07:05.171Z,96951.34
2023-04-30T09:09:38.714Z,96941.97
2023-04-30T09:12:18.607Z,96936.03
2023-04-30T09:15:02.159Z,96932.53
2023-04-30T09:17:31.003Z,96933.78
2023-04-30T09:20:11.068Z,96930.31
2023-04-30T09:22:41.896Z,96920.38
2023-04-30T09:25:09.916Z,96925.47
2023-04-30T09:27:36.534Z,96924.41
2023-04-30T09:30:05.674Z,96910.38
2023-04-30T09:32:36.785Z,96920.84
2023-04-30T09:35:03.428Z,96920.97
2023-04-30T09:37:38.120Z,96918.72
2023-04-30T09:40:05.248Z,96928.78
2023-04-30T09:42:39.796Z,96924.81
2023-04-30T09:45:11.248Z,96919.03
2023-04-30T09:47:41.929Z,96911.09
2023-04-30T09:50:08.908Z,96909.41
2023-04-30T09:52:35.800Z,96912.59
2023-04-30T09:55:08.432Z,96914.72
2023-04-30T09:57:38.195Z,96914.09
2023-04-30T10:00:05.870Z,96914.25
2023-04-30T10:02:33.609Z,96902.09
2023-04-30T10:05:01.130Z,96903.19
2023-04-30T10:07:34.251Z,96897.09
2023-04-30T10:10:08.626Z,96899.69
2023-04-30T10:12:51.022Z,96904.66
2023-04-30T10:15:21.194Z,96904.25
2023-04-30T10:17:56.662Z,96898.44
2023-04-30T10:20:26.837Z,96899.19
2023-04-30T10:22:53.904Z,96898.38
2023-04-30T10:25:20.563Z,96891.56
2023-04-30T10:27:47.267Z,96893.06
2023-04-30T10:30:15.444Z,96897.84
2023-04-30T10:33:29.189Z,96896.50
2023-04-30T10:36:13.407Z,96889.22
2023-04-30T10:38:45.977Z,96895.75
2023-04-30T10:41:15.184Z,96885.13
2023-04-30T10:43:41.963Z,96881.75
2023-04-30T10:46:08.663Z,96878.75
2023-04-30T10:48:37.450Z,96881.28
2023-04-30T10:51:04.319Z,96883.38
2023-04-30T10:53:36.604Z,96884.34
2023-04-30T10:56:09.974Z,96878.56
2023-04-30T10:58:44.158Z,96884.47
2023-04-30T11:01:15.850Z,96889.97
2023-04-30T11:04:11.800Z,96882.47
2023-04-30T11:06:57.094Z,96888.44
2023-04-30T11:09:38.865Z,96878.72
2023-04-30T11:12:14.363Z,96882.84
2023-04-30T11:14:47.549Z,96880.47
2023-04-30T11:17:23.556Z,96889.47
2023-04-30T11:19:54.659Z,96887.91
2023-04-30T11:22:30.077Z,96875.59
2023-04-30T11:24:59.765Z,96873.59
2023-04-30T11:27:28.448Z,96887.78
2023-04-30T11:29:56.393Z,96872.13
2023-04-30T11:32:34.166Z,96874.31
2023-04-30T11:35:04.164Z,96866.16
2023-04-30T11:37:35.950Z,96872.47
2023-04-30T11:40:06.022Z,96872.81
2023-04-30T11:42:35.404Z,96868.69
2023-04-30T11:45:21.061Z,96857.19
2023-04-30T11:47:50.496Z,96864.28
2023-04-30T11:50:19.391Z,96859.66
2023-04-30T11:52:50.705Z,96852.94
2023-04-30T11:55:19.583Z,96856.78
2023-04-30T11:57:53.159Z,96856.47
2023-04-30T12:00:21.561Z,96850.25
2023-04-30T12:02:50.189Z,96839.50
2023-04-30T12:05:20.178Z,96847.50
2023-04-30T12:07:51.066Z,96851.03
2023-04-30T12:10:25.970Z,96843.88
2023-04-30T12:12:54.681Z,96847.94
2023-04-30T12:15:26.313Z,96857.16
2023-04-30T12:18:02.050Z,96842.38
2023-04-30T12:20:34.278Z,96848.38
2023-04-30T12:23:03.323Z,96847.91
2023-04-30T12:25:40.973Z,96850.06
2023-04-30T12:28:10.126Z,96854.59
2023-04-30T12:30:36.784Z,96848.03
2023-04-30T12:33:06.204Z,96848.09
2023-04-30T12:35:32.910Z,96847.28
2023-04-30T12:38:07.458Z,96852.94
2023-04-30T12:40:34.692Z,96841.81
2023-04-30T12:43:02.166Z,96843.56
2023-04-30T12:45:56.476Z,96851.66
2023-04-30T12:48:30.765Z,96852.91
2023-04-30T12:51:05.049Z,96846.28
2023-04-30T12:53:34.796Z,96843.81
2023-04-30T12:56:17.180Z,96837.22
2023-04-30T12:58:49.774Z,96845.66
2023-04-30T13:01:24.320Z,96835.22
2023-04-30T13:03:54.933Z,96834.44
2023-04-30T13:06:23.442Z,96841.84
2023-04-30T13:08:58.545Z,96844.44
2023-04-30T13:11:26.956Z,96850.28
2023-04-30T13:13:55.748Z,96846.88
2023-04-30T13:16:24.617Z,96846.25
2023-04-30T13:18:53.993Z,96846.53
2023-04-30T13:21:21.210Z,96838.28
2023-04-30T13:23:54.045Z,96838.41
2023-04-30T13:26:24.566Z,96830.28
2023-04-30T13:28:56.056Z,96833.25
2023-04-30T13:31:27.545Z,96831.09
2023-04-30T13:33:54.927Z,96823.94
2023-04-30T13:36:21.555Z,96827.34
2023-04-30T13:38:50.294Z,96827.13
2023-04-30T13:41:16.906Z,96820.88
2023-04-30T13:43:47.726Z,96817.19
2023-04-30T13:46:15.123Z,96816.06
2023-04-30T13:48:44.031Z,96821.22
2023-04-30T13:51:15.321Z,96819.06
2023-04-30T13:53:41.902Z,96820.34
2023-04-30T13:56:08.526Z,96820.63
2023-04-30T13:58:35.047Z,96817.38
2023-04-30T14:01:01.868Z,96813.63
2023-04-30T14:03:28.575Z,96815.59
2023-04-30T14:05:55.524Z,96820.53
2023-04-30T14:08:25.042Z,96814.88
2023-04-30T14:10:51.633Z,96820.00
2023-04-30T14:13:20.682Z,96818.34
2023-04-30T14:15:51.858Z,96815.59
2023-04-30T14:18:23.523Z,96814.38
2023-04-30T14:20:52.311Z,96809.97
2023-04-30T14:23:21.110Z,96818.94
2023-04-30T14:25:50.194Z,96816.22
2023-04-30T14:28:21.619Z,96813.31
2023-04-30T14:30:48.162Z,96811.75
2023-04-30T14:33:17.321Z,96812.91
2023-04-30T14:35:47.458Z,96816.91
2023-04-30T14:38:14.923Z,96805.06
2023-04-30T14:40:43.375Z,96808.06
2023-04-30T14:43:09.969Z,96802.31
2023-04-30T14:45:37.254Z,96799.41
2023-04-30T14:48:06.237Z,96798.94
2023-04-30T14:50:32.803Z,96805.09
2023-04-30T14:53:01.909Z,96799.22
2023-04-30T14:55:28.557Z,96800.94
2023-04-30T14:57:58.089Z,96799.09
2023-04-30T15:00:29.488Z,96799.19
2023-04-30T15:02:58.770Z,96801.66
2023-04-30T15:05:31.255Z,96799.69
2023-04-30T15:08:00.134Z,96796.00
2023-04-30T15:10:28.953Z,96800.63
2023-04-30T15:12:57.671Z,96803.69
2023-04-30T15:15:28.717Z,96799.69
2023-04-30T15:17:57.649Z,96808.53
2023-04-30T15:20:26.897Z,96795.50
2023-04-30T15:22:54.980Z,96788.59
2023-04-30T15:25:24.763Z,96804.41
2023-04-30T15:27:54.274Z,96800.31
2023-04-30T15:30:23.588Z,96794.22
2023-04-30T15:32:50.542Z,96795.31
2023-04-30T15:35:17.728Z,96795.50
2023-04-30T15:37:44.892Z,96796.72
2023-04-30T15:40:15.217Z,96799.91
2023-04-30T15:42:42.056Z,96795.91
2023-04-30T15:45:12.008Z,96795.06
2023-04-30T15:47:39.085Z,96795.97
2023-04-30T15:50:11.299Z,96802.06
2023-04-30T15:52:39.934Z,96798.88
2023-04-30T15:55:09.708Z,96799.50
2023-04-30T15:57:38.599Z,96806.63
2023-04-30T16:00:10.749Z,96796.00
2023-04-30T16:02:41.831Z,96799.47
2023-04-30T16:05:13.629Z,96797.94
2023-04-30T16:07:43.057Z,96795.50
2023-04-30T16:10:10.989Z,96805.41
2023-04-30T16:12:39.757Z,96797.66
2023-04-30T16:15:07.804Z,96797.38
2023-04-30T16:17:34.364Z,96801.16
2023-04-30T16:20:03.936Z,96797.09
2023-04-30T16:22:30.495Z,96799.34
2023-04-30T16:24:59.277Z,96800.09
2023-04-30T16:27:30.847Z,96797.06
2023-04-30T16:30:01.074Z,96803.16
2023-04-30T16:32:30.217Z,96799.53
2023-04-30T16:34:59.119Z,96798.88
2023-04-30T16:37:28.693Z,96793.28
2023-04-30T16:40:10.434Z,96788.38
2023-04-30T16:42:39.123Z,96791.13
2023-04-30T16:45:09.440Z,96799.03
2023-04-30T16:47:38.145Z,96801.63
2023-04-30T16:50:05.107Z,96796.59
2023-04-30T16:52:33.921Z,96798.88
2023-04-30T16:55:05.150Z,96792.03
2023-04-30T16:57:31.884Z,96787.78
2023-04-30T16:59:58.592Z,96787.94
2023-04-30T17:02:25.468Z,96785.22
2023-04-30T17:04:52.470Z,96788.25
2023-04-30T17:07:19.052Z,96785.66
2023-04-30T17:09:45.711Z,96789.16
2023-04-30T17:12:12.290Z,96783.69
2023-04-30T17:14:43.618Z,96793.09
2023-04-30T17:17:14.978Z,96794.47
2023-04-30T17:19:46.306Z,96797.03
2023-04-30T17:22:13.221Z,96798.44
2023-04-30T17:24:42.778Z,96801.00
2023-04-30T17:27:09.550Z,96801.44
2023-04-30T17:29:36.114Z,96805.25
2023-04-30T17:32:10.591Z,96805.25
2023-04-30T17:34:42.449Z,96809.00
2023-04-30T17:37:11.217Z,96806.56
2023-04-30T17:39:40.536Z,96808.84
2023-04-30T17:42:09.688Z,96814.47
2023-04-30T17:44:39.843Z,96809.00
2023-04-30T17:47:07.683Z,96811.91
2023-04-30T17:49:34.213Z,96811.00
2023-04-30T17:52:03.885Z,96812.22
2023-04-30T17:54:36.527Z,96806.25
2023-04-30T17:57:05.527Z,96807.50
2023-04-30T17:59:32.222Z,96811.91
2023-04-30T18:01:59.098Z,96815.22
2023-04-30T18:04:28.229Z,96815.66
2023-04-30T18:06:54.841Z,96815.81
2023-04-30T18:09:26.220Z,96811.56
2023-04-30T18:11:53.419Z,96808.06
2023-04-30T18:14:20.012Z,96819.13
2023-04-30T18:16:48.738Z,96811.69
2023-04-30T18:19:15.836Z,96809.66
2023-04-30T18:21:47.612Z,96814.09
2023-04-30T18:24:14.175Z,96811.19
2023-04-30T18:26:43.690Z,96804.97
2023-04-30T18:29:10.261Z,96811.50
2023-04-30T18:31:39.821Z,96804.03
2023-04-30T18:34:06.592Z,96812.53
2023-04-30T18:36:36.155Z,96821.94
2023-04-30T18:39:03.293Z,96809.97
2023-04-30T18:41:29.860Z,96815.22
2023-04-30T18:43:56.808Z,96812.81
2023-04-30T18:46:23.894Z,96815.41
2023-04-30T18:48:50.478Z,96817.53
2023-04-30T18:51:17.030Z,96815.38
2023-04-30T18:53:47.631Z,96812.34
2023-04-30T18:56:15.806Z,96814.00
2023-04-30T18:58:44.884Z,96821.75
2023-04-30T19:01:14.232Z,96821.38
2023-04-30T19:03:42.140Z,96825.03
2023-04-30T19:06:11.071Z,96817.16
2023-04-30T19:08:37.685Z,96828.97
2023-04-30T19:11:06.682Z,96826.72
2023-04-30T19:13:35.867Z,96830.06
2023-04-30T19:16:02.798Z,96832.63
2023-04-30T19:18:31.952Z,96838.94
2023-04-30T19:21:01.024Z,96838.53
2023-04-30T19:23:31.730Z,96832.84
2023-04-30T19:25:59.638Z,96835.28
2023-04-30T19:28:26.258Z,96838.13
2023-04-30T19:30:55.355Z,96833.00
2023-04-30T19:33:25.140Z,96847.84
2023-04-30T19:35:59.194Z,96844.34
2023-04-30T19:38:28.304Z,96847.09
2023-04-30T19:40:54.979Z,96842.56
2023-04-30T19:43:22.721Z,96843.28
2023-04-30T19:45:56.664Z,96846.88
2023-04-30T19:48:24.681Z,96855.56
2023-04-30T19:50:53.760Z,96845.84
2023-04-30T19:53:27.314Z,96854.03
2023-04-30T19:55:53.897Z,96853.25
2023-04-30T19:58:20.813Z,96850.13
2023-04-30T20:00:47.659Z,96850.09
2023-04-30T20:03:16.713Z,96854.47
2023-04-30T20:05:44.667Z,96857.75
2023-04-30T20:08:15.995Z,96849.25
2023-04-30T20:10:46.979Z,96859.72
2023-04-30T20:13:18.393Z,96853.97
2023-04-30T20:15:49.819Z,96857.00
2023-04-30T20:18:18.494Z,96848.38
2023-04-30T20:20:48.079Z,96851.84
2023-04-30T20:23:19.312Z,96844.44
2023-04-30T20:25:46.704Z,96853.69
2023-04-30T20:28:15.233Z,96852.28
2023-04-30T20:30:43.135Z,96849.31
2023-04-30T20:33:15.861Z,96843.50
2023-04-30T20:35:47.739Z,96858.53
2023-04-30T20:38:14.576Z,96847.16
2023-04-30T20:40:45.049Z,96850.91
2023-04-30T20:43:14.085Z,96846.03
2023-04-30T20:45:46.009Z,96847.09
2023-04-30T20:48:12.848Z,96845.25
2023-04-30T20:50:40.107Z,96849.34
2023-04-30T20:53:11.009Z,96847.50
2023-04-30T20:55:37.966Z,96841.16
2023-04-30T20:58:09.414Z,96844.13
2023-04-30T21:00:36.298Z,96844.69
2023-04-30T21:03:03.002Z,96836.84
2023-04-30T21:05:30.195Z,96845.31
2023-04-30T21:08:01.136Z,96837.78
2023-04-30T21:10:35.609Z,96844.25
2023-04-30T21:13:08.878Z,96839.69
2023-04-30T21:15:39.188Z,96835.63
2023-04-30T21:18:08.709Z,96836.06
2023-04-30T21:20:35.548Z,96838.59
2023-04-30T21:23:02.486Z,96829.31
2023-04-30T21:25:29.177Z,96832.75
2023-04-30T21:27:55.876Z,96829.47
2023-04-30T21:30:25.668Z,96827.81
2023-04-30T21:32:58.060Z,96832.19
2023-04-30T21:35:29.799Z,96836.00
2023-04-30T21:37:56.376Z,96826.59
2023-04-30T21:40:22.992Z,96827.88
2023-04-30T21:42:52.899Z,96825.47
2023-04-30T21:45:19.862Z,96827.38
2023-04-30T21:47:47.782Z,96821.00
2023-04-30T21:50:14.653Z,96821.91
2023-04-30T21:52:46.133Z,96821.78
2023-04-30T21:55:17.568Z,96817.13
2023-04-30T21:57:47.280Z,96815.16
2023-04-30T22:00:17.296Z,96813.97
2023-04-30T22:02:49.315Z,96815.38
2023-04-30T22:05:19.718Z,96823.56
2023-04-30T22:07:47.434Z,96817.00
2023-04-30T22:10:14.875Z,96815.22
2023-04-30T22:12:47.400Z,96816.25
2023-04-30T22:15:15.002Z,96815.91
2023-04-30T22:17:41.710Z,96815.28
2023-04-30T22:20:09.889Z,96820.31
2023-04-30T22:22:36.450Z,96817.69
2023-04-30T22:25:03.273Z,96810.97
2023-04-30T22:27:29.962Z,96813.88
2023-04-30T22:29:59.108Z,96804.06
2023-04-30T22:32:26.367Z,96813.44
2023-04-30T22:34:53.028Z,96808.09
2023-04-30T22:37:19.571Z,96811.72
2023-04-30T22:39:48.482Z,96805.97
2023-04-30T22:42:18.115Z,96806.19
2023-04-30T22:44:47.218Z,96801.94
2023-04-30T22:47:13.971Z,96801.31
2023-04-30T22:49:41.057Z,96800.72
2023-04-30T22:52:10.155Z,96797.25
2023-04-30T22:54:36.796Z,96803.81
2023-04-30T22:57:06.012Z,96793.13
2023-04-30T22:59:33.268Z,96797.81
2023-04-30T23:01:59.815Z,96791.84
2023-04-30T23:04:28.910Z,96800.09
2023-04-30T23:06:55.936Z,96801.22
2023-04-30T23:09:24.716Z,96799.69
2023-04-30T23:11:53.482Z,96800.00
2023-04-30T23:14:27.355Z,96798.91
2023-04-30T23:16:56.429Z,96801.78
2023-04-30T23:19:23.205Z,96796.53
2023-04-30T23:21:52.805Z,96793.03
2023-04-30T23:24:19.359Z,96790.75
2023-04-30T23:26:48.461Z,96793.72
2023-04-30T23:29:15.118Z,96792.28
2023-04-30T23:31:41.744Z,96792.00
2023-04-30T23:34:10.887Z,96789.91
2023-04-30T23:36:40.631Z,96788.19
2023-04-30T23:39:07.186Z,96792.22
2023-04-30T23:41:36.112Z,96796.59
2023-04-30T23:44:04.864Z,96793.75
2023-04-30T23:46:34.013Z,96793.09
2023-04-30T23:49:00.553Z,96798.31
2023-04-30T23:51:27.101Z,96794.84
2023-04-30T23:53:53.825Z,96790.91
2023-04-30T23:56:20.386Z,96796.03
2023-04-30T23:58:49.708Z,96797.66
